createdAt,value
2022-08-23T00:26:46.459Z,52
2022-08-23T00:56:06.842Z,56
2022-08-23T01:25:31.179Z,53
2022-08-23T01:54:55.573Z,53
2022-08-23T02:24:22.661Z,54
2022-08-23T02:53:46.241Z,54
2022-08-23T03:23:13.860Z,55
2022-08-23T03:52:33.829Z,55
2022-08-23T04:21:47.800Z,56
2022-08-23T04:51:10.697Z,56
2022-08-23T05:20:33.143Z,57
2022-08-23T05:49:52.432Z,59
2022-08-23T06:19:13.090Z,59
2022-08-23T06:48:29.389Z,59
2022-08-23T07:17:48.345Z,58
2022-08-23T07:47:08.546Z,55
2022-08-23T08:16:29.454Z,52
2022-08-23T08:45:59.266Z,50
2022-08-23T09:14:44.004Z,49
2022-08-23T09:43:29.901Z,45
2022-08-23T10:13:04.843Z,45
2022-08-23T10:42:28.674Z,43
2022-08-23T11:12:02.100Z,41
2022-08-23T11:41:30.550Z,38
2022-08-23T12:11:07.140Z,33
2022-08-23T12:40:42.139Z,37
2022-08-23T13:09:25.243Z,39
2022-08-23T13:38:45.571Z,37
2022-08-23T14:08:11.093Z,38
2022-08-23T14:38:06.052Z,34
2022-08-23T15:07:17.033Z,33
2022-08-23T15:35:41.874Z,33
2022-08-23T16:04:40.783Z,33
2022-08-23T16:34:05.154Z,33
2022-08-23T17:03:32.685Z,35
2022-08-23T17:32:59.302Z,35
2022-08-23T18:02:13.862Z,38
2022-08-23T18:31:27.095Z,40
2022-08-23T19:00:39.197Z,41
2022-08-23T19:29:48.411Z,41
2022-08-23T19:59:04.433Z,43
2022-08-23T20:28:32.009Z,44
2022-08-23T20:57:55.215Z,45
2022-08-23T21:26:51.536Z,44
2022-08-23T21:56:14.669Z,44
2022-08-23T22:25:41.629Z,45
2022-08-23T22:55:00.160Z,45
2022-08-23T23:24:16.385Z,45
2022-08-23T23:53:42.311Z,46
